createdAt,value
2022-08-09T00:00:11.968Z,16.90
2022-08-09T00:02:49.079Z,16.80
2022-08-09T00:06:16.586Z,16.80
2022-08-09T00:08:09.895Z,16.70
2022-08-09T00:10:38.520Z,16.70
2022-08-09T00:13:12.925Z,16.60
2022-08-09T00:15:59.251Z,16.60
2022-08-09T00:18:35.037Z,16.60
2022-08-09T00:21:07.898Z,16.40
2022-08-09T00:23:55.685Z,16.30
2022-08-09T00:26:32.507Z,16.10
2022-08-09T00:29:01.686Z,16.00
2022-08-09T00:31:57.328Z,15.90
2022-08-09T00:34:19.395Z,15.80
2022-08-09T00:36:48.130Z,15.60
2022-08-09T00:40:08.860Z,15.50
2022-08-09T00:44:14.160Z,15.40
2022-08-09T00:44:49.327Z,15.40
2022-08-09T00:47:16.052Z,15.40
2022-08-09T00:49:43.870Z,15.40
2022-08-09T00:52:22.837Z,15.40
2022-08-09T00:54:58.530Z,15.40
2022-08-09T00:57:34.901Z,15.40
2022-08-09T01:00:22.029Z,15.40
2022-08-09T01:03:13.595Z,15.40
2022-08-09T01:05:58.416Z,15.30
2022-08-09T01:08:59.849Z,15.30
2022-08-09T01:11:35.257Z,15.30
2022-08-09T01:14:20.376Z,15.30
2022-08-09T01:16:51.755Z,15.20
2022-08-09T01:19:57.188Z,15.10
2022-08-09T01:22:57.261Z,14.90
2022-08-09T01:25:37.372Z,14.60
2022-08-09T01:28:10.008Z,14.40
2022-08-09T01:30:52.439Z,14.30
2022-08-09T01:33:25.236Z,14.30
2022-08-09T01:36:03.083Z,14.30
2022-08-09T01:38:34.506Z,14.30
2022-08-09T01:41:11.949Z,14.30
2022-08-09T01:43:42.077Z,14.30
2022-08-09T01:46:23.910Z,14.20
2022-08-09T01:48:53.986Z,14.10
2022-08-09T01:51:22.706Z,14.10
2022-08-09T01:53:53.776Z,14.10
2022-08-09T01:56:27.032Z,14.00
2022-08-09T01:58:56.556Z,13.90
2022-08-09T02:01:58.432Z,13.90
2022-08-09T02:04:13.130Z,13.80
2022-08-09T02:07:02.887Z,13.90
2022-08-09T02:09:42.272Z,13.90
2022-08-09T02:12:13.454Z,13.90
2022-08-09T02:14:48.613Z,13.90
2022-08-09T02:17:59.261Z,13.80
2022-08-09T02:20:10.697Z,13.80
2022-08-09T02:22:48.331Z,13.80
2022-08-09T02:25:20.685Z,13.90
2022-08-09T02:28:04.109Z,13.90
2022-08-09T02:30:37.910Z,13.90
2022-08-09T02:33:16.980Z,13.70
2022-08-09T02:36:03.804Z,13.70
2022-08-09T02:38:32.122Z,13.60
2022-08-09T02:41:10.256Z,13.50
2022-08-09T02:43:42.579Z,13.50
2022-08-09T02:46:24.223Z,13.40
2022-08-09T02:48:52.912Z,13.40
2022-08-09T02:51:22.535Z,13.30
2022-08-09T02:53:59.618Z,13.30
2022-08-09T02:56:30.326Z,13.30
2022-08-09T02:58:58.675Z,13.30
2022-08-09T03:01:29.433Z,13.20
2022-08-09T03:04:19.306Z,13.20
2022-08-09T03:06:48.896Z,13.20
2022-08-09T03:09:17.233Z,13.20
2022-08-09T03:12:08.481Z,13.20
2022-08-09T03:14:32.729Z,13.20
2022-08-09T03:17:01.468Z,13.20
2022-08-09T03:19:59.116Z,13.30
2022-08-09T03:22:25.015Z,13.40
2022-08-09T03:25:06.542Z,13.50
2022-08-09T03:27:48.606Z,13.40
2022-08-09T03:30:23.632Z,13.50
2022-08-09T03:33:17.274Z,13.50
2022-08-09T03:36:13.034Z,13.60
2022-08-09T03:38:43.283Z,13.60
2022-08-09T03:41:16.365Z,13.70
2022-08-09T03:44:03.366Z,13.70
2022-08-09T03:46:34.560Z,13.70
2022-08-09T03:49:08.193Z,13.80
2022-08-09T03:51:55.371Z,13.80
2022-08-09T03:54:29.405Z,13.80
2022-08-09T03:56:59.021Z,13.80
2022-08-09T03:59:52.969Z,13.80
2022-08-09T04:02:14.331Z,13.90
2022-08-09T04:04:45.545Z,14.00
2022-08-09T04:07:13.172Z,14.00
2022-08-09T04:09:47.926Z,14.00
2022-08-09T04:12:30.895Z,14.10
2022-08-09T04:15:02.130Z,14.20
2022-08-09T04:17:39.358Z,14.20
2022-08-09T04:20:11.270Z,14.10
2022-08-09T04:22:41.104Z,14.10
2022-08-09T04:25:11.795Z,14.20
2022-08-09T04:27:42.553Z,14.30
2022-08-09T04:30:17.902Z,14.40
2022-08-09T04:32:47.817Z,14.40
2022-08-09T04:35:15.372Z,14.50
2022-08-09T04:37:46.393Z,14.50
2022-08-09T04:40:28.926Z,14.70
2022-08-09T04:43:01.386Z,14.90
2022-08-09T04:45:30.640Z,15.20
2022-08-09T04:48:04.089Z,15.30
2022-08-09T04:50:35.058Z,15.30
2022-08-09T04:53:12.959Z,15.00
2022-08-09T04:55:43.945Z,15.00
2022-08-09T04:58:32.905Z,15.30
2022-08-09T05:01:02.285Z,15.80
2022-08-09T05:03:43.334Z,16.30
2022-08-09T05:06:25.772Z,17.00
2022-08-09T05:08:59.785Z,17.80
2022-08-09T05:11:32.325Z,18.50
2022-08-09T05:14:05.814Z,18.80
2022-08-09T05:16:58.506Z,18.70
2022-08-09T05:19:24.410Z,18.60
2022-08-09T05:21:55.916Z,19.10
2022-08-09T05:24:24.183Z,19.80
2022-08-09T05:26:51.936Z,20.50
2022-08-09T05:29:24.194Z,21.00
2022-08-09T05:32:00.391Z,21.00
2022-08-09T05:34:31.030Z,20.70
2022-08-09T05:37:06.762Z,20.20
2022-08-09T05:39:43.435Z,19.50
2022-08-09T05:42:20.508Z,19.00
2022-08-09T05:45:00.822Z,18.60
2022-08-09T05:47:30.371Z,18.70
2022-08-09T05:50:23.872Z,19.60
2022-08-09T05:52:53.924Z,20.00
2022-08-09T05:55:23.436Z,20.10
2022-08-09T05:57:57.484Z,19.90
2022-08-09T06:00:30.643Z,19.60
2022-08-09T06:03:01.495Z,19.40
2022-08-09T06:05:54.671Z,19.20
2022-08-09T06:08:19.387Z,19.10
2022-08-09T06:10:51.949Z,19.20
2022-08-09T06:13:20.421Z,19.10
2022-08-09T06:15:51.835Z,19.10
2022-08-09T06:18:23.980Z,19.20
2022-08-09T06:20:58.299Z,19.30
2022-08-09T06:23:55.354Z,19.40
2022-08-09T06:26:15.236Z,19.30
2022-08-09T06:29:01.103Z,19.50
2022-08-09T06:31:40.599Z,19.90
2022-08-09T06:34:20.334Z,20.30
2022-08-09T06:36:49.854Z,20.80
2022-08-09T06:39:24.250Z,20.70
2022-08-09T06:42:11.365Z,21.20
2022-08-09T06:44:38.378Z,21.80
2022-08-09T06:47:05.477Z,21.70
2022-08-09T06:50:12.234Z,21.90
2022-08-09T06:52:23.505Z,21.90
2022-08-09T06:54:52.120Z,21.90
2022-08-09T06:57:25.755Z,21.90
2022-08-09T07:00:50.844Z,21.90
2022-08-09T07:02:56.025Z,21.70
2022-08-09T07:05:24.463Z,21.80
2022-08-09T07:08:11.125Z,22.50
2022-08-09T07:10:38.470Z,23.20
2022-08-09T07:13:27.587Z,23.90
2022-08-09T07:16:35.057Z,24.30
2022-08-09T07:18:39.048Z,24.90
2022-08-09T07:21:07.782Z,25.80
2022-08-09T07:23:36.129Z,25.90
2022-08-09T07:26:04.179Z,26.20
2022-08-09T07:28:31.449Z,26.20
2022-08-09T07:31:04.573Z,25.00
2022-08-09T07:33:53.147Z,24.70
2022-08-09T07:36:19.658Z,24.80
2022-08-09T07:38:53.956Z,24.90
2022-08-09T07:41:25.962Z,24.90
2022-08-09T07:43:55.916Z,25.00
2022-08-09T07:46:27.623Z,24.80
2022-08-09T07:48:59.453Z,24.80
2022-08-09T07:52:03.777Z,24.90
2022-08-09T07:54:14.905Z,24.90
2022-08-09T07:56:48.791Z,25.10
2022-08-09T07:59:25.360Z,25.20
2022-08-09T08:02:00.252Z,25.70
2022-08-09T08:04:32.118Z,25.90
2022-08-09T08:07:00.186Z,25.90
2022-08-09T08:09:38.716Z,25.80
2022-08-09T08:12:28.420Z,25.30
2022-08-09T08:14:57.929Z,25.40
2022-08-09T08:17:54.170Z,25.50
2022-08-09T08:20:13.650Z,25.80
2022-08-09T08:22:41.082Z,25.90
2022-08-09T08:25:13.522Z,26.00
2022-08-09T08:27:42.866Z,25.80
2022-08-09T08:30:11.728Z,25.90
2022-08-09T08:32:41.735Z,26.10
2022-08-09T08:35:22.478Z,26.20
2022-08-09T08:38:02.038Z,26.40
2022-08-09T08:40:33.208Z,26.70
2022-08-09T08:43:03.106Z,26.50
2022-08-09T08:45:51.524Z,26.40
2022-08-09T08:48:22.253Z,26.50
2022-08-09T08:50:51.901Z,26.50
2022-08-09T08:53:22.082Z,26.80
2022-08-09T08:55:48.959Z,26.70
2022-08-09T08:58:20.498Z,26.40
2022-08-09T09:01:01.906Z,26.50
2022-08-09T09:03:38.001Z,26.80
2022-08-09T09:06:05.711Z,27.20
2022-08-09T09:08:40.720Z,27.10
2022-08-09T09:11:13.559Z,27.10
2022-08-09T09:13:56.470Z,27.00
2022-08-09T09:16:32.193Z,27.70
2022-08-09T09:22:11.399Z,28.20
2022-08-09T09:24:43.327Z,27.90
2022-08-09T09:27:21.972Z,27.20
2022-08-09T09:30:12.365Z,26.70
2022-08-09T09:32:43.439Z,27.10
2022-08-09T09:35:17.664Z,27.50
2022-08-09T09:37:45.966Z,28.30
2022-08-09T09:40:13.157Z,28.10
2022-08-09T09:42:42.797Z,28.10
2022-08-09T09:45:14.159Z,28.30
2022-08-09T09:47:56.684Z,28.70
2022-08-09T09:50:55.815Z,29.40
2022-08-09T09:53:57.611Z,28.90
2022-08-09T09:56:20.084Z,29.10
2022-08-09T09:58:58.074Z,29.30
2022-08-09T10:01:30.297Z,28.70
2022-08-09T10:04:23.016Z,28.30
2022-08-09T10:06:57.998Z,27.80
2022-08-09T10:09:25.574Z,28.20
2022-08-09T10:12:14.371Z,28.30
2022-08-09T10:14:50.040Z,27.80
2022-08-09T10:17:51.050Z,26.90
2022-08-09T10:20:35.630Z,26.50
2022-08-09T10:23:20.183Z,26.20
2022-08-09T10:26:06.517Z,25.90
2022-08-09T10:28:36.203Z,26.00
2022-08-09T10:34:10.954Z,26.20
2022-08-09T10:36:39.966Z,26.50
2022-08-09T10:39:15.873Z,27.00
2022-08-09T10:41:47.800Z,27.40
2022-08-09T10:44:18.380Z,28.00
2022-08-09T10:48:10.143Z,28.30
2022-08-09T10:50:14.785Z,28.10
2022-08-09T10:52:51.484Z,28.20
2022-08-09T10:55:22.750Z,28.30
2022-08-09T10:57:51.803Z,28.10
2022-08-09T11:00:33.276Z,28.10
2022-08-09T11:03:15.493Z,28.60
2022-08-09T11:06:18.465Z,29.50
2022-08-09T11:08:51.186Z,30.40
2022-08-09T11:11:20.917Z,30.30
2022-08-09T11:14:28.180Z,30.00
2022-08-09T11:16:57.256Z,29.30
2022-08-09T11:20:12.207Z,28.70
2022-08-09T11:22:56.789Z,28.40
2022-08-09T11:25:44.788Z,28.40
2022-08-09T11:28:33.946Z,29.30
2022-08-09T11:31:02.281Z,29.20
2022-08-09T11:33:42.946Z,29.50
2022-08-09T11:36:12.325Z,30.00
2022-08-09T11:39:02.133Z,29.90
2022-08-09T11:41:37.456Z,30.60
2022-08-09T11:44:05.935Z,30.10
2022-08-09T11:46:56.887Z,29.90
2022-08-09T11:50:55.241Z,30.10
2022-08-09T11:53:44.083Z,29.80
2022-08-09T11:55:53.203Z,29.40
2022-08-09T11:58:32.449Z,29.30
2022-08-09T12:01:03.517Z,29.00
2022-08-09T12:03:54.916Z,28.60
2022-08-09T12:06:26.504Z,29.10
2022-08-09T12:08:55.721Z,29.50
2022-08-09T12:11:24.599Z,29.60
2022-08-09T12:14:10.711Z,30.10
2022-08-09T12:16:44.318Z,30.50
2022-08-09T12:19:13.751Z,30.40
2022-08-09T12:21:50.654Z,29.70
2022-08-09T12:24:26.018Z,29.10
2022-08-09T12:29:14.326Z,29.20
2022-08-09T12:30:00.018Z,29.50
2022-08-09T12:32:31.352Z,29.40
2022-08-09T12:35:04.736Z,29.60
2022-08-09T12:37:44.144Z,29.80
2022-08-09T12:40:18.582Z,30.60
2022-08-09T12:42:50.427Z,31.60
2022-08-09T12:45:33.356Z,32.10
2022-08-09T12:48:05.058Z,32.10
2022-08-09T12:50:34.303Z,31.40
2022-08-09T12:53:09.627Z,30.70
2022-08-09T12:56:15.994Z,30.50
2022-08-09T12:58:32.510Z,30.30
2022-08-09T13:01:04.542Z,30.70
2022-08-09T13:03:54.185Z,30.90
2022-08-09T13:06:37.093Z,30.70
2022-08-09T13:09:14.939Z,29.70
2022-08-09T13:11:45.241Z,29.10
2022-08-09T13:14:42.803Z,29.60
2022-08-09T13:17:03.628Z,29.60
2022-08-09T13:20:10.364Z,29.80
2022-08-09T13:22:35.318Z,29.90
2022-08-09T13:25:13.693Z,30.10
2022-08-09T13:27:55.142Z,30.60
2022-08-09T13:30:50.933Z,30.10
2022-08-09T13:33:20.907Z,29.60
2022-08-09T13:36:37.534Z,29.60
2022-08-09T13:38:55.821Z,30.20
2022-08-09T13:41:57.506Z,31.70
2022-08-09T13:44:16.495Z,31.30
2022-08-09T13:47:25.354Z,30.40
2022-08-09T13:49:38.099Z,30.10
2022-08-09T13:52:22.070Z,30.30
2022-08-09T13:54:58.723Z,30.70
2022-08-09T13:57:36.748Z,30.40
2022-08-09T14:00:15.546Z,30.30
2022-08-09T14:03:03.976Z,30.00
2022-08-09T14:06:01.247Z,29.80
2022-08-09T14:08:22.295Z,29.70
2022-08-09T14:10:52.153Z,29.50
2022-08-09T14:13:28.147Z,29.40
2022-08-09T14:16:10.917Z,29.80
2022-08-09T14:18:43.322Z,30.00
2022-08-09T14:21:17.605Z,30.70
2022-08-09T14:23:54.477Z,30.30
2022-08-09T14:26:25.243Z,30.20
2022-08-09T14:28:52.283Z,30.80
2022-08-09T14:31:18.978Z,31.50
2022-08-09T14:33:54.470Z,31.80
2022-08-09T14:36:21.448Z,32.20
2022-08-09T14:38:53.070Z,31.80
2022-08-09T14:41:34.624Z,31.10
2022-08-09T14:44:07.009Z,31.00
2022-08-09T14:46:56.031Z,31.70
2022-08-09T14:49:24.980Z,31.60
2022-08-09T14:51:51.778Z,30.90
2022-08-09T14:54:27.899Z,30.10
2022-08-09T14:56:59.057Z,29.70
2022-08-09T14:59:28.554Z,29.60
2022-08-09T15:01:56.139Z,29.60
2022-08-09T15:04:23.891Z,29.30
2022-08-09T15:06:51.837Z,28.80
2022-08-09T15:10:03.811Z,28.60
2022-08-09T15:12:07.759Z,28.60
2022-08-09T15:14:35.239Z,28.40
2022-08-09T15:17:09.692Z,28.40
2022-08-09T15:19:37.154Z,28.50
2022-08-09T15:22:25.872Z,28.70
2022-08-09T15:24:53.500Z,28.60
2022-08-09T15:27:21.110Z,28.60
2022-08-09T15:30:58.819Z,28.60
2022-08-09T15:32:35.663Z,28.70
2022-08-09T15:35:40.393Z,28.40
2022-08-09T15:38:10.758Z,28.70
2022-08-09T15:40:37.872Z,28.80
2022-08-09T15:43:13.733Z,28.90
2022-08-09T15:46:07.597Z,28.50
2022-08-09T15:48:30.794Z,28.40
2022-08-09T15:51:00.131Z,28.50
2022-08-09T15:54:03.416Z,28.30
2022-08-09T15:56:21.613Z,28.50
2022-08-09T15:58:56.899Z,28.40
2022-08-09T16:01:23.652Z,28.20
2022-08-09T16:03:51.050Z,27.90
2022-08-09T16:06:35.147Z,27.90
2022-08-09T16:09:06.107Z,27.80
2022-08-09T16:11:33.431Z,27.50
2022-08-09T16:14:04.114Z,27.40
2022-08-09T16:16:37.193Z,27.50
2022-08-09T16:19:06.180Z,27.40
2022-08-09T16:21:35.352Z,27.40
2022-08-09T16:24:04.745Z,27.30
2022-08-09T16:26:35.437Z,27.30
2022-08-09T16:29:12.631Z,27.60
2022-08-09T16:32:18.038Z,28.00
2022-08-09T16:34:55.352Z,28.20
2022-08-09T16:37:16.735Z,28.00
2022-08-09T16:40:02.650Z,27.80
2022-08-09T16:42:29.970Z,27.60
2022-08-09T16:44:56.641Z,27.40
2022-08-09T16:48:43.169Z,27.20
2022-08-09T16:50:31.299Z,27.10
2022-08-09T16:52:57.000Z,26.90
2022-08-09T16:55:23.930Z,26.60
2022-08-09T16:58:08.610Z,26.40
2022-08-09T17:00:38.712Z,26.30
2022-08-09T17:03:21.692Z,26.40
2022-08-09T17:06:06.615Z,26.40
2022-08-09T17:08:44.245Z,26.40
2022-08-09T17:11:15.305Z,26.20
2022-08-09T17:13:45.287Z,26.20
2022-08-09T17:16:12.089Z,26.20
2022-08-09T17:18:39.198Z,26.20
2022-08-09T17:21:05.901Z,26.20
2022-08-09T17:24:21.002Z,25.90
2022-08-09T17:26:31.683Z,25.80
2022-08-09T17:29:04.844Z,25.60
2022-08-09T17:31:40.351Z,25.50
2022-08-09T17:35:00.722Z,25.40
2022-08-09T17:36:54.733Z,25.40
2022-08-09T17:39:25.145Z,25.30
2022-08-09T17:42:08.357Z,25.30
2022-08-09T17:44:55.062Z,25.20
2022-08-09T17:47:21.798Z,25.30
2022-08-09T17:49:55.762Z,25.20
2022-08-09T17:52:29.785Z,25.00
2022-08-09T17:54:56.980Z,24.90
2022-08-09T17:58:02.472Z,24.80
2022-08-09T18:00:11.039Z,24.80
2022-08-09T18:02:40.875Z,24.80
2022-08-09T18:05:17.183Z,24.80
2022-08-09T18:07:48.138Z,24.70
2022-08-09T18:10:15.491Z,24.60
2022-08-09T18:13:40.195Z,24.50
2022-08-09T18:16:05.227Z,24.40
2022-08-09T18:18:25.268Z,24.30
2022-08-09T18:21:10.472Z,24.30
2022-08-09T18:24:12.658Z,24.20
2022-08-09T18:26:26.443Z,24.20
2022-08-09T18:30:37.729Z,24.00
2022-08-09T18:31:55.889Z,23.90
2022-08-09T18:34:35.861Z,23.80
2022-08-09T18:37:03.844Z,23.70
2022-08-09T18:39:32.602Z,23.70
2022-08-09T18:42:01.727Z,23.60
2022-08-09T18:44:28.482Z,23.50
2022-08-09T18:47:04.987Z,23.40
2022-08-09T18:49:41.513Z,23.30
2022-08-09T18:52:14.507Z,23.30
2022-08-09T18:54:52.176Z,23.20
2022-08-09T18:57:19.861Z,23.10
2022-08-09T18:59:57.806Z,22.90
2022-08-09T19:02:32.142Z,22.90
2022-08-09T19:05:20.357Z,22.80
2022-08-09T19:08:04.636Z,22.70
2022-08-09T19:10:39.491Z,22.60
2022-08-09T19:13:20.559Z,22.50
2022-08-09T19:15:52.299Z,22.50
2022-08-09T19:18:33.711Z,22.50
2022-08-09T19:21:11.383Z,22.40
2022-08-09T19:24:33.504Z,22.40
2022-08-09T19:26:32.203Z,22.30
2022-08-09T19:29:15.538Z,22.30
2022-08-09T19:31:46.554Z,22.20
2022-08-09T19:34:22.790Z,22.20
2022-08-09T19:36:55.723Z,22.00
2022-08-09T19:39:43.726Z,21.90
2022-08-09T19:42:14.445Z,21.80
2022-08-09T19:44:42.845Z,21.80
2022-08-09T19:47:11.158Z,21.70
2022-08-09T19:50:07.317Z,21.50
2022-08-09T19:52:26.397Z,21.40
2022-08-09T19:54:56.104Z,21.20
2022-08-09T19:57:26.053Z,21.20
2022-08-09T20:00:05.888Z,21.00
2022-08-09T20:04:11.081Z,20.80
2022-08-09T20:05:24.901Z,20.80
2022-08-09T20:07:59.136Z,20.60
2022-08-09T20:10:36.455Z,20.50
2022-08-09T20:13:06.210Z,20.40
2022-08-09T20:16:33.754Z,20.30
2022-08-09T20:18:22.392Z,20.30
2022-08-09T20:20:51.340Z,20.20
2022-08-09T20:23:23.614Z,20.10
2022-08-09T20:25:52.033Z,19.90
2022-08-09T20:28:34.392Z,19.80
2022-08-09T20:31:05.629Z,19.70
2022-08-09T20:33:41.393Z,19.70
2022-08-09T20:36:11.176Z,19.60
2022-08-09T20:39:18.611Z,19.60
2022-08-09T20:41:32.276Z,19.50
2022-08-09T20:44:03.159Z,19.40
2022-08-09T20:46:42.421Z,19.40
2022-08-09T20:49:11.635Z,19.30
2022-08-09T20:51:41.579Z,19.20
2022-08-09T20:54:16.608Z,19.00
2022-08-09T20:56:47.107Z,19.00
2022-08-09T20:59:17.403Z,18.80
2022-08-09T21:01:50.991Z,18.70
2022-08-09T21:05:56.985Z,18.70
2022-08-09T21:07:12.993Z,18.60
2022-08-09T21:09:56.519Z,18.40
2022-08-09T21:15:17.948Z,18.10
2022-08-09T21:18:11.158Z,18.00
2022-08-09T21:20:38.376Z,17.90
2022-08-09T21:23:09.211Z,17.70
2022-08-09T21:25:59.939Z,17.60
2022-08-09T21:28:33.307Z,17.20
2022-08-09T21:31:17.289Z,16.90
2022-08-09T21:33:52.397Z,16.90
2022-08-09T21:36:23.603Z,16.90
2022-08-09T21:38:57.768Z,16.90
2022-08-09T21:42:04.353Z,17.00
2022-08-09T21:44:33.903Z,17.00
2022-08-09T21:47:07.686Z,17.00
2022-08-09T21:49:39.700Z,17.10
2022-08-09T21:52:14.773Z,17.20
2022-08-09T21:54:50.792Z,17.30
2022-08-09T21:57:39.242Z,17.40
2022-08-09T22:00:26.051Z,17.30
2022-08-09T22:02:58.086Z,17.30
2022-08-09T22:05:35.601Z,17.20
2022-08-09T22:08:05.916Z,17.20
2022-08-09T22:10:33.244Z,17.20
2022-08-09T22:13:00.955Z,17.20
2022-08-09T22:15:35.276Z,17.10
2022-08-09T22:18:04.054Z,17.10
2022-08-09T22:20:31.637Z,17.10
2022-08-09T22:22:58.511Z,17.10
2022-08-09T22:26:12.156Z,17.20
2022-08-09T22:28:12.421Z,17.10
2022-08-09T22:30:41.916Z,17.10
2022-08-09T22:33:17.334Z,17.10
2022-08-09T22:36:03.308Z,17.10
2022-08-09T22:38:30.691Z,17.10
2022-08-09T22:40:58.522Z,16.90
2022-08-09T22:44:01.966Z,16.70
2022-08-09T22:48:14.814Z,16.40
2022-08-09T22:49:05.526Z,16.20
2022-08-09T22:51:38.084Z,16.10
2022-08-09T22:54:08.036Z,16.10
2022-08-09T22:56:38.126Z,16.10
2022-08-09T22:59:55.620Z,16.10
2022-08-09T23:01:55.993Z,16.20
2022-08-09T23:04:22.908Z,16.30
2022-08-09T23:07:14.125Z,16.30
2022-08-09T23:09:43.309Z,16.30
2022-08-09T23:12:10.076Z,16.40
2022-08-09T23:14:41.947Z,16.40
2022-08-09T23:17:10.438Z,16.40
2022-08-09T23:20:06.301Z,16.40
2022-08-09T23:22:24.785Z,16.40
2022-08-09T23:24:51.641Z,16.40
2022-08-09T23:27:18.455Z,16.40
2022-08-09T23:29:45.077Z,16.40
2022-08-09T23:32:12.153Z,16.40
2022-08-09T23:34:38.868Z,16.40
2022-08-09T23:37:06.108Z,16.40
2022-08-09T23:39:33.149Z,16.40
2022-08-09T23:41:59.976Z,16.40
2022-08-09T23:44:26.705Z,16.40
2022-08-09T23:46:57.168Z,16.40
2022-08-09T23:49:25.695Z,16.40
2022-08-09T23:51:53.274Z,16.40
2022-08-09T23:54:26.611Z,16.40
2022-08-09T23:56:56.300Z,16.30
2022-08-09T23:59:25.475Z,16.30
